LFRM/LME METAR and TAF weather

Enter ICAO airport designator
Station Type Date Time Source
LFRM METAR 2023/02/05 13:30 UTC NOAA

LFRM 051330Z AUTO 02010KT 330V060 9999 BKN030 BKN038 11/04 Q1041 NOSIG


Station Type Date Time Source
LFRM Decoded METAR 2023/02/05 13:30 UTC NOAA

Le Mans, France (LFRM) 47-56N 000-12E 52M
Feb 05, 2023 - 08:30 AM EST / 2023.02.05 1330 UTC
Wind: from the NNE (020 degrees) at 12 MPH (10 KT) (direction variable):0
Visibility: greater than 7 mile(s):0
Sky conditions: mostly cloudy
Temperature: 51 F (11 C)
Dew Point: 39 F (4 C)
Relative Humidity: 61%
Pressure (altimeter): 30.74 in. Hg (1041 hPa)
ob: LFRM 051330Z AUTO 02010KT 330V060 9999 BKN030 BKN038 11/04 Q1041 NOSIG
cycle: 13

Station Type Date Time Source
LFRM TAF 2023/02/05 12:45 UTC NOAA

TAF TAF LFRM 051100Z 0512/0612 03008KT 9999 BKN020 PROB30
TEMPO 0609/0611 BKN012

Example: see airport list